createdAt,value
2018-03-22T00:00:45.813Z,80.30
2018-03-22T00:03:13.291Z,80.90
2018-03-22T00:05:41.528Z,80.90
2018-03-22T00:08:08.999Z,80.80
2018-03-22T00:10:36.723Z,80.80
2018-03-22T00:13:04.487Z,80.60
2018-03-22T00:15:31.959Z,80.00
2018-03-22T00:17:59.448Z,80.50
2018-03-22T00:20:26.927Z,80.50
2018-03-22T00:22:54.389Z,80.70
2018-03-22T00:25:21.875Z,80.70
2018-03-22T00:27:49.349Z,80.90
2018-03-22T00:30:16.832Z,80.50
2018-03-22T00:32:44.329Z,80.30
2018-03-22T00:35:11.802Z,80.50
2018-03-22T00:37:39.311Z,80.90
2018-03-22T00:40:07.555Z,81.20
2018-03-22T00:42:35.018Z,81.10
2018-03-22T00:45:02.480Z,81.00
2018-03-22T00:47:29.946Z,81.30
2018-03-22T00:49:57.410Z,81.00
2018-03-22T00:52:24.885Z,81.20
2018-03-22T00:54:53.173Z,81.90
2018-03-22T00:57:20.595Z,81.80
2018-03-22T00:59:48.063Z,81.40
2018-03-22T01:02:15.523Z,81.50
2018-03-22T01:04:43.002Z,80.80
2018-03-22T01:07:11.511Z,81.00
2018-03-22T01:09:38.987Z,81.00
2018-03-22T01:12:06.461Z,80.70
2018-03-22T01:14:33.925Z,80.70
2018-03-22T01:17:01.405Z,81.20
2018-03-22T01:19:29.625Z,81.00
2018-03-22T01:21:57.090Z,80.90
2018-03-22T01:24:24.838Z,80.50
2018-03-22T01:26:52.310Z,80.50
2018-03-22T01:29:19.776Z,81.30
2018-03-22T01:31:47.246Z,81.40
2018-03-22T01:34:14.705Z,82.30
2018-03-22T01:36:42.165Z,81.70
2018-03-22T01:39:10.558Z,81.40
2018-03-22T01:41:38.798Z,81.90
2018-03-22T01:44:06.262Z,81.40
2018-03-22T01:46:33.738Z,81.40
2018-03-22T01:49:01.211Z,81.80
2018-03-22T01:51:28.685Z,81.30
2018-03-22T01:53:56.931Z,81.40
2018-03-22T01:56:24.396Z,81.30
2018-03-22T01:58:52.634Z,81.40
2018-03-22T02:01:20.100Z,81.30
2018-03-22T02:03:47.555Z,81.30
2018-03-22T02:06:15.029Z,81.30
2018-03-22T02:08:42.850Z,81.50
2018-03-22T02:11:10.320Z,80.80
2018-03-22T02:13:37.793Z,81.20
2018-03-22T02:16:05.274Z,81.20
2018-03-22T02:18:32.995Z,81.10
2018-03-22T02:21:00.470Z,81.20
2018-03-22T02:23:28.217Z,81.20
2018-03-22T02:25:55.687Z,81.20
2018-03-22T02:28:23.929Z,81.10
2018-03-22T02:30:51.402Z,81.10
2018-03-22T02:33:18.875Z,80.60
2018-03-22T02:35:47.101Z,81.00
2018-03-22T02:38:15.367Z,80.70
2018-03-22T02:40:43.604Z,81.20
2018-03-22T02:43:11.301Z,81.00
2018-03-22T02:45:38.770Z,81.00
2018-03-22T02:48:06.998Z,81.10
2018-03-22T02:50:34.475Z,80.90
2018-03-22T02:53:02.203Z,81.00
2018-03-22T02:55:29.679Z,81.00
2018-03-22T02:57:57.145Z,80.50
2018-03-22T03:00:24.618Z,79.60
2018-03-22T03:02:52.342Z,79.40
2018-03-22T03:05:19.806Z,79.40
2018-03-22T03:07:47.279Z,80.00
2018-03-22T03:10:14.752Z,80.90
2018-03-22T03:12:42.230Z,81.20
2018-03-22T03:15:10.467Z,81.80
2018-03-22T03:17:37.942Z,81.60
2018-03-22T03:20:05.438Z,81.30
2018-03-22T03:22:32.898Z,80.70
2018-03-22T03:25:00.367Z,81.10
2018-03-22T03:27:27.830Z,80.60
2018-03-22T03:29:55.306Z,80.40
2018-03-22T03:32:22.789Z,80.50
2018-03-22T03:34:50.262Z,80.50
2018-03-22T03:37:18.503Z,81.00
2018-03-22T03:39:46.198Z,80.90
2018-03-22T03:42:14.440Z,81.50
2018-03-22T03:44:42.178Z,81.40
2018-03-22T03:47:09.950Z,82.10
2018-03-22T03:49:37.422Z,81.40
2018-03-22T03:52:04.898Z,81.40
2018-03-22T03:54:32.358Z,81.30
2018-03-22T03:57:00.382Z,81.60
2018-03-22T03:59:27.846Z,81.40
2018-03-22T04:01:55.319Z,81.00
2018-03-22T04:04:22.787Z,81.00
2018-03-22T04:06:50.617Z,80.80
2018-03-22T04:09:18.287Z,80.80
2018-03-22T04:11:45.745Z,80.90
2018-03-22T04:14:13.206Z,80.70
2018-03-22T04:16:40.777Z,81.30
2018-03-22T04:19:08.245Z,81.30
2018-03-22T04:21:35.718Z,81.20
2018-03-22T04:24:03.174Z,82.10
2018-03-22T04:26:30.864Z,80.90
2018-03-22T04:28:58.327Z,81.20
2018-03-22T04:31:25.799Z,81.00
2018-03-22T04:33:53.267Z,81.50
2018-03-22T04:36:20.731Z,81.50
2018-03-22T04:38:48.197Z,81.60
2018-03-22T04:41:15.669Z,80.30
2018-03-22T04:43:43.136Z,80.30
2018-03-22T04:46:10.597Z,80.20
2018-03-22T04:48:38.063Z,80.60
2018-03-22T04:51:05.535Z,81.40
2018-03-22T04:53:33.766Z,80.30
2018-03-22T04:56:01.234Z,80.30
2018-03-22T04:58:28.704Z,80.70
2018-03-22T05:00:56.182Z,80.30
2018-03-22T05:03:24.618Z,80.30
2018-03-22T05:05:52.083Z,80.40
2018-03-22T05:08:19.555Z,80.00
2018-03-22T05:10:47.028Z,80.40
2018-03-22T05:13:15.259Z,80.40
2018-03-22T05:15:42.934Z,80.30
2018-03-22T05:18:10.411Z,80.30
2018-03-22T05:20:37.874Z,80.30
2018-03-22T05:23:06.142Z,80.40
2018-03-22T05:25:33.601Z,80.40
2018-03-22T05:28:01.074Z,81.00
2018-03-22T05:30:28.559Z,80.50
2018-03-22T05:32:56.043Z,80.50
2018-03-22T05:35:23.517Z,79.40
2018-03-22T05:37:51.245Z,80.40
2018-03-22T05:40:18.720Z,80.50
2018-03-22T05:42:46.196Z,79.80
2018-03-22T05:45:13.662Z,80.40
2018-03-22T05:47:41.920Z,79.50
2018-03-22T05:50:09.382Z,79.40
2018-03-22T05:52:36.841Z,80.00
2018-03-22T05:55:04.301Z,79.70
2018-03-22T05:57:31.763Z,78.90
2018-03-22T05:59:59.225Z,79.00
2018-03-22T06:02:27.047Z,78.50
2018-03-22T06:04:54.514Z,78.00
2018-03-22T06:07:22.266Z,78.40
2018-03-22T06:09:49.719Z,78.90
2018-03-22T06:12:17.183Z,78.20
2018-03-22T06:14:44.639Z,78.60
2018-03-22T06:17:12.114Z,77.40
2018-03-22T06:19:39.584Z,77.90
2018-03-22T06:22:07.051Z,77.70
2018-03-22T06:24:34.515Z,77.20
2018-03-22T06:27:01.976Z,77.60
2018-03-22T06:29:29.447Z,77.30
2018-03-22T06:31:57.665Z,77.30
2018-03-22T06:34:25.135Z,77.30
2018-03-22T06:36:52.618Z,77.40
2018-03-22T06:39:20.077Z,77.40
2018-03-22T06:41:47.538Z,76.80
2018-03-22T06:44:14.995Z,76.30
2018-03-22T06:46:42.466Z,76.70
2018-03-22T06:49:10.689Z,75.70
2018-03-22T06:51:38.154Z,75.70
2018-03-22T06:54:05.623Z,75.70
2018-03-22T06:56:33.990Z,74.70
2018-03-22T06:59:01.683Z,75.10
2018-03-22T07:01:30.208Z,74.60
2018-03-22T07:03:57.673Z,74.00
2018-03-22T07:06:25.141Z,74.10
2018-03-22T07:08:53.367Z,73.80
2018-03-22T07:11:21.600Z,72.70
2018-03-22T07:13:49.064Z,72.60
2018-03-22T07:16:16.793Z,72.50
2018-03-22T07:18:44.559Z,72.70
2018-03-22T07:21:12.017Z,71.40
2018-03-22T07:23:39.482Z,69.60
2018-03-22T07:26:07.339Z,70.00
2018-03-22T07:28:35.102Z,69.20
2018-03-22T07:31:02.560Z,70.10
2018-03-22T07:33:30.326Z,70.50
2018-03-22T07:35:57.790Z,71.00
2018-03-22T07:38:25.252Z,69.40
2018-03-22T07:40:52.731Z,68.80
2018-03-22T07:43:25.905Z,67.60
2018-03-22T07:45:53.373Z,68.50
2018-03-22T07:48:20.839Z,69.10
2018-03-22T07:50:48.302Z,68.60
2018-03-22T07:53:15.772Z,67.50
2018-03-22T07:55:43.223Z,66.60
2018-03-22T07:58:10.686Z,66.70
2018-03-22T08:00:38.168Z,67.30
2018-03-22T08:03:05.631Z,67.60
2018-03-22T08:05:33.081Z,66.70
2018-03-22T08:08:01.298Z,66.20
2018-03-22T08:10:28.766Z,66.20
2018-03-22T08:12:56.222Z,66.30
2018-03-22T08:15:23.954Z,64.20
2018-03-22T08:17:51.466Z,63.90
2018-03-22T08:20:18.878Z,63.20
2018-03-22T08:22:46.331Z,63.40
2018-03-22T08:25:13.799Z,62.80
2018-03-22T08:27:41.254Z,63.50
2018-03-22T08:30:08.703Z,61.00
2018-03-22T08:32:36.403Z,61.10
2018-03-22T08:35:03.865Z,60.00
2018-03-22T08:37:31.335Z,60.40
2018-03-22T08:39:58.790Z,59.30
2018-03-22T08:42:26.246Z,58.80
2018-03-22T08:44:53.703Z,59.10
2018-03-22T08:49:55.745Z,58.60
2018-03-22T08:52:23.202Z,58.50
2018-03-22T08:54:50.784Z,57.50
2018-03-22T08:57:18.129Z,57.80
2018-03-22T08:59:45.609Z,58.40
2018-03-22T09:02:13.058Z,58.50
2018-03-22T09:04:40.518Z,58.60
2018-03-22T09:07:07.990Z,57.10
2018-03-22T09:09:36.217Z,57.10
2018-03-22T09:12:03.718Z,57.10
2018-03-22T09:14:31.134Z,56.60
2018-03-22T09:16:58.591Z,58.70
2018-03-22T09:19:26.040Z,58.30
2018-03-22T09:21:53.498Z,58.00
2018-03-22T09:24:20.954Z,58.20
2018-03-22T09:26:54.189Z,57.40
2018-03-22T09:29:21.644Z,55.50
2018-03-22T09:31:49.093Z,54.20
2018-03-22T09:34:16.814Z,55.60
2018-03-22T09:36:44.275Z,55.20
2018-03-22T09:39:11.736Z,56.10
2018-03-22T09:41:39.206Z,55.80
2018-03-22T09:44:06.668Z,56.60
2018-03-22T09:46:34.127Z,56.00
2018-03-22T09:49:01.575Z,55.00
2018-03-22T09:51:29.027Z,56.40
2018-03-22T09:53:56.492Z,55.10
2018-03-22T09:56:23.941Z,55.50
2018-03-22T09:58:51.399Z,55.20
2018-03-22T10:01:18.847Z,55.80
2018-03-22T10:03:46.308Z,56.30
2018-03-22T10:06:13.764Z,56.40
2018-03-22T10:08:41.219Z,55.70
2018-03-22T10:11:08.730Z,55.00
2018-03-22T10:13:36.538Z,55.00
2018-03-22T10:16:04.002Z,52.20
2018-03-22T10:18:31.470Z,53.20
2018-03-22T10:20:58.930Z,51.30
2018-03-22T10:23:26.392Z,48.60
2018-03-22T10:25:53.833Z,48.90
2018-03-22T10:28:21.307Z,53.00
2018-03-22T10:30:48.772Z,50.70
2018-03-22T10:33:16.231Z,50.90
2018-03-22T10:35:43.691Z,51.90
2018-03-22T10:38:11.155Z,52.70
2018-03-22T10:40:38.597Z,51.50
2018-03-22T10:43:06.066Z,52.70
2018-03-22T10:45:33.517Z,49.40
2018-03-22T10:48:00.970Z,49.40
2018-03-22T10:50:28.441Z,50.00
2018-03-22T10:52:55.895Z,47.30
2018-03-22T10:55:23.620Z,49.50
2018-03-22T10:57:51.082Z,47.80
2018-03-22T11:00:24.190Z,48.30
2018-03-22T11:02:53.483Z,50.90
2018-03-22T11:05:20.949Z,49.90
2018-03-22T11:07:48.406Z,46.70
2018-03-22T11:10:15.858Z,48.60
2018-03-22T11:12:43.318Z,51.60
2018-03-22T11:15:10.771Z,50.70
2018-03-22T11:17:38.229Z,48.10
2018-03-22T11:20:05.683Z,48.00
2018-03-22T11:22:33.152Z,47.50
2018-03-22T11:25:00.602Z,45.90
2018-03-22T11:27:28.113Z,45.10
2018-03-22T11:29:55.531Z,46.20
2018-03-22T11:32:22.995Z,44.10
2018-03-22T11:34:50.446Z,43.70
2018-03-22T11:37:17.902Z,42.10
2018-03-22T11:39:45.487Z,44.30
2018-03-22T11:42:13.720Z,44.10
2018-03-22T11:44:41.177Z,44.10
2018-03-22T11:47:08.627Z,47.00
2018-03-22T11:49:36.093Z,46.50
2018-03-22T11:52:04.306Z,44.50
2018-03-22T11:54:32.536Z,41.70
2018-03-22T11:56:59.996Z,41.70
2018-03-22T11:59:27.456Z,46.60
2018-03-22T12:01:55.295Z,47.60
2018-03-22T12:04:22.660Z,42.90
2018-03-22T12:06:50.149Z,43.70
2018-03-22T12:09:17.611Z,42.20
2018-03-22T12:11:45.083Z,42.90
2018-03-22T12:14:13.313Z,45.20
2018-03-22T12:16:41.064Z,45.00
2018-03-22T12:19:08.530Z,38.80
2018-03-22T12:21:35.997Z,41.40
2018-03-22T12:24:03.463Z,42.40
2018-03-22T12:26:30.918Z,43.90
2018-03-22T12:28:58.380Z,42.90
2018-03-22T12:31:25.843Z,43.90
2018-03-22T12:33:53.307Z,43.20
2018-03-22T12:36:20.770Z,43.70
2018-03-22T12:38:48.222Z,40.10
2018-03-22T12:41:15.679Z,40.50
2018-03-22T12:43:43.181Z,42.70
2018-03-22T12:46:10.638Z,43.90
2018-03-22T12:48:38.096Z,42.70
2018-03-22T12:51:05.553Z,42.60
2018-03-22T12:53:33.010Z,43.70
2018-03-22T12:56:00.466Z,47.00
2018-03-22T12:58:27.923Z,42.90
2018-03-22T13:00:55.382Z,45.70
2018-03-22T13:03:22.852Z,45.50
2018-03-22T13:05:50.313Z,45.50
2018-03-22T13:08:17.780Z,43.60
2018-03-22T13:10:45.242Z,43.50
2018-03-22T13:13:13.478Z,43.60
2018-03-22T13:15:40.937Z,43.50
2018-03-22T13:18:08.399Z,46.20
2018-03-22T13:20:35.870Z,46.20
2018-03-22T13:23:03.349Z,42.90
2018-03-22T13:25:30.806Z,41.30
2018-03-22T13:27:58.275Z,41.10
2018-03-22T13:30:25.735Z,43.00
2018-03-22T13:32:53.194Z,42.10
2018-03-22T13:35:20.662Z,38.60
2018-03-22T13:37:48.120Z,40.20
2018-03-22T13:40:15.595Z,37.80
2018-03-22T13:42:43.810Z,36.40
2018-03-22T13:45:11.266Z,36.40
2018-03-22T13:47:38.727Z,40.00
2018-03-22T13:50:06.182Z,38.40
2018-03-22T13:52:33.654Z,42.00
2018-03-22T13:55:01.111Z,42.00
2018-03-22T13:57:28.575Z,41.40
2018-03-22T13:59:56.880Z,41.00
2018-03-22T14:02:25.103Z,38.80
2018-03-22T14:04:52.566Z,38.60
2018-03-22T14:07:20.015Z,39.90
2018-03-22T14:09:47.473Z,38.10
2018-03-22T14:12:14.940Z,41.10
2018-03-22T14:14:42.382Z,42.00
2018-03-22T14:17:09.891Z,43.10
2018-03-22T14:19:37.598Z,39.50
2018-03-22T14:22:05.368Z,41.00
2018-03-22T14:24:32.835Z,42.10
2018-03-22T14:27:00.287Z,42.50
2018-03-22T14:29:27.750Z,40.90
2018-03-22T14:31:55.503Z,41.80
2018-03-22T14:34:23.271Z,41.70
2018-03-22T14:36:50.728Z,38.00
2018-03-22T14:39:18.487Z,42.00
2018-03-22T14:41:45.963Z,41.00
2018-03-22T14:44:13.415Z,38.60
2018-03-22T14:46:40.879Z,40.00
2018-03-22T14:49:08.321Z,42.00
2018-03-22T14:51:35.785Z,42.40
2018-03-22T14:54:03.234Z,41.90
2018-03-22T14:56:30.690Z,42.20
2018-03-22T14:58:58.154Z,43.30
2018-03-22T15:01:25.618Z,39.80
2018-03-22T15:03:53.077Z,41.60
2018-03-22T15:06:20.788Z,43.10
2018-03-22T15:08:48.215Z,43.50
2018-03-22T15:11:15.689Z,42.00
2018-03-22T15:13:43.174Z,43.10
2018-03-22T15:16:10.654Z,39.60
2018-03-22T15:18:38.151Z,41.00
2018-03-22T15:21:05.611Z,41.00
2018-03-22T15:23:33.073Z,40.90
2018-03-22T15:26:00.526Z,42.10
2018-03-22T15:28:28.009Z,41.40
2018-03-22T15:30:56.234Z,41.70
2018-03-22T15:33:23.682Z,41.70
2018-03-22T15:35:51.143Z,42.50
2018-03-22T15:38:18.598Z,42.50
2018-03-22T15:40:46.056Z,42.80
2018-03-22T15:43:13.534Z,44.00
2018-03-22T15:45:40.985Z,42.80
2018-03-22T15:48:08.443Z,43.00
2018-03-22T15:50:35.909Z,43.20
2018-03-22T15:53:03.371Z,44.30
2018-03-22T15:55:30.847Z,43.60
2018-03-22T15:57:59.366Z,44.40
2018-03-22T16:00:26.917Z,44.40
2018-03-22T16:02:54.383Z,44.80
2018-03-22T16:05:21.842Z,45.60
2018-03-22T16:07:49.311Z,46.50
2018-03-22T16:10:16.985Z,47.10
2018-03-22T16:12:44.479Z,46.90
2018-03-22T16:15:12.713Z,48.90
2018-03-22T16:17:40.183Z,48.80
2018-03-22T16:20:07.674Z,49.70
2018-03-22T16:22:35.913Z,50.00
2018-03-22T16:25:03.376Z,50.00
2018-03-22T16:27:30.828Z,49.40
2018-03-22T16:29:58.309Z,49.80
2018-03-22T16:32:25.762Z,49.80
2018-03-22T16:34:54.002Z,56.40
2018-03-22T16:37:21.475Z,56.40
2018-03-22T16:39:48.931Z,59.10
2018-03-22T16:42:16.401Z,61.40
2018-03-22T16:44:43.880Z,63.60
2018-03-22T16:47:12.122Z,65.30
2018-03-22T16:49:40.155Z,65.30
2018-03-22T16:52:07.569Z,65.90
2018-03-22T16:54:35.023Z,67.00
2018-03-22T16:57:02.778Z,66.60
2018-03-22T16:59:30.254Z,66.30
2018-03-22T17:01:58.486Z,66.40
2018-03-22T17:04:26.233Z,65.80
2018-03-22T17:06:53.686Z,66.20
2018-03-22T17:09:21.146Z,65.90
2018-03-22T17:11:48.614Z,66.30
2018-03-22T17:14:16.075Z,66.10
2018-03-22T17:16:43.827Z,66.80
2018-03-22T17:19:11.291Z,66.60
2018-03-22T17:21:38.752Z,66.90
2018-03-22T17:24:06.483Z,69.20
2018-03-22T17:26:34.716Z,71.20
2018-03-22T17:29:02.474Z,71.00
2018-03-22T17:31:29.938Z,72.60
2018-03-22T17:33:57.665Z,73.30
2018-03-22T17:36:25.137Z,74.60
2018-03-22T17:38:52.594Z,76.60
2018-03-22T17:41:20.048Z,77.80
2018-03-22T17:43:47.506Z,78.30
2018-03-22T17:46:14.992Z,79.60
2018-03-22T17:48:42.715Z,79.60
2018-03-22T17:51:10.380Z,80.90
2018-03-22T17:53:38.778Z,82.80
2018-03-22T17:56:06.366Z,82.70
2018-03-22T17:58:33.839Z,83.80
2018-03-22T18:01:02.360Z,84.10
2018-03-22T18:03:29.851Z,84.10
2018-03-22T18:05:57.326Z,84.60
2018-03-22T18:08:24.801Z,85.20
2018-03-22T18:10:53.043Z,85.00
2018-03-22T18:13:20.505Z,85.00
2018-03-22T18:15:47.974Z,84.80
2018-03-22T18:18:16.201Z,86.20
2018-03-22T18:20:43.666Z,85.80
2018-03-22T18:23:11.126Z,85.90
2018-03-22T18:25:38.622Z,85.60
2018-03-22T18:28:06.082Z,85.20
2018-03-22T18:30:33.562Z,85.90
2018-03-22T18:33:01.032Z,85.80
2018-03-22T18:35:28.547Z,85.50
2018-03-22T18:37:55.990Z,85.00
2018-03-22T18:40:24.242Z,84.90
2018-03-22T18:42:51.707Z,85.10
2018-03-22T18:45:19.171Z,84.90
2018-03-22T18:47:46.637Z,84.60
2018-03-22T18:50:14.105Z,84.90
2018-03-22T18:52:41.595Z,84.90
2018-03-22T18:55:09.068Z,85.50
2018-03-22T18:57:36.743Z,85.60
2018-03-22T19:00:04.216Z,85.80
2018-03-22T19:02:31.955Z,85.80
2018-03-22T19:04:59.724Z,86.10
2018-03-22T19:07:27.187Z,86.00
2018-03-22T19:09:54.866Z,87.00
2018-03-22T19:12:22.334Z,85.80
2018-03-22T19:14:49.806Z,85.60
2018-03-22T19:17:17.280Z,86.00
2018-03-22T19:19:44.747Z,86.00
2018-03-22T19:22:13.250Z,86.90
2018-03-22T19:24:40.713Z,86.80
2018-03-22T19:27:08.178Z,86.90
2018-03-22T19:29:35.639Z,86.40
2018-03-22T19:32:03.098Z,86.90
2018-03-22T19:34:30.561Z,86.30
2018-03-22T19:36:58.300Z,86.70
2018-03-22T19:39:25.769Z,85.80
2018-03-22T19:41:53.241Z,85.50
2018-03-22T19:44:20.724Z,85.80
2018-03-22T19:46:48.538Z,85.30
2018-03-22T19:49:15.990Z,85.80
2018-03-22T19:51:43.501Z,85.30
2018-03-22T19:54:10.955Z,85.50
2018-03-22T19:56:38.469Z,84.80
2018-03-22T19:59:06.662Z,85.30
2018-03-22T20:01:34.125Z,85.20
2018-03-22T20:04:01.590Z,84.50
2018-03-22T20:06:29.041Z,84.90
2018-03-22T20:08:57.699Z,85.10
2018-03-22T20:11:25.162Z,85.10
2018-03-22T20:13:52.630Z,85.00
2018-03-22T20:16:20.098Z,85.10
2018-03-22T20:18:47.552Z,85.40
2018-03-22T20:21:15.291Z,85.00
2018-03-22T20:23:43.159Z,84.60
2018-03-22T20:26:10.668Z,84.90
2018-03-22T20:28:38.384Z,84.90
2018-03-22T20:31:05.842Z,84.50
2018-03-22T20:33:33.318Z,85.10
2018-03-22T20:36:01.058Z,85.10
2018-03-22T20:38:28.530Z,85.10
2018-03-22T20:40:56.003Z,84.90
2018-03-22T20:43:23.467Z,84.80
2018-03-22T20:45:50.928Z,84.00
2018-03-22T20:48:18.426Z,84.30
2018-03-22T20:50:45.891Z,83.70
2018-03-22T20:53:13.351Z,84.20
2018-03-22T20:55:40.843Z,83.00
2018-03-22T20:58:08.320Z,83.10
2018-03-22T21:00:36.038Z,83.90
2018-03-22T21:03:03.498Z,83.30
2018-03-22T21:05:30.968Z,83.50
2018-03-22T21:07:58.442Z,83.20
2018-03-22T21:10:25.915Z,83.30
2018-03-22T21:12:53.373Z,83.50
2018-03-22T21:15:20.837Z,83.00
2018-03-22T21:17:48.306Z,83.00
2018-03-22T21:20:15.793Z,83.00
2018-03-22T21:22:43.262Z,83.10
2018-03-22T21:25:10.719Z,82.50
2018-03-22T21:27:38.267Z,83.00
2018-03-22T21:30:05.729Z,82.50
2018-03-22T21:32:33.197Z,82.50
2018-03-22T21:35:00.950Z,82.80
2018-03-22T21:37:28.717Z,82.60
2018-03-22T21:39:56.182Z,82.80
2018-03-22T21:42:23.646Z,83.00
2018-03-22T21:44:51.115Z,82.50
2018-03-22T21:47:30.422Z,83.20
2018-03-22T21:49:57.887Z,83.30
2018-03-22T21:52:37.202Z,83.80
2018-03-22T21:55:04.670Z,84.00
2018-03-22T21:57:32.133Z,84.80
2018-03-22T21:59:59.601Z,85.20
2018-03-22T22:02:27.067Z,85.60
2018-03-22T22:04:54.571Z,86.20
2018-03-22T22:07:22.267Z,87.20
2018-03-22T22:09:49.721Z,88.20
2018-03-22T22:12:17.193Z,88.30
2018-03-22T22:14:44.661Z,89.10
2018-03-22T22:17:12.401Z,89.70
2018-03-22T22:19:39.898Z,90.30
2018-03-22T22:22:07.354Z,90.40
2018-03-22T22:24:34.818Z,90.60
2018-03-22T22:27:02.345Z,90.40
2018-03-22T22:29:30.529Z,90.40
2018-03-22T22:31:58.268Z,90.30
2018-03-22T22:34:25.726Z,90.50
2018-03-22T22:36:53.191Z,90.60
2018-03-22T22:39:20.664Z,90.50
2018-03-22T22:41:48.128Z,90.40
2018-03-22T22:44:15.597Z,90.20
2018-03-22T22:46:43.315Z,90.30
2018-03-22T22:49:10.790Z,90.40
2018-03-22T22:51:39.939Z,90.40
2018-03-22T22:54:08.214Z,90.20
2018-03-22T22:56:36.438Z,90.00
2018-03-22T22:59:03.914Z,90.00
2018-03-22T23:01:31.644Z,90.00
2018-03-22T23:03:59.611Z,90.10
2018-03-22T23:06:27.073Z,90.00
2018-03-22T23:08:54.537Z,89.70
2018-03-22T23:11:21.997Z,89.70
2018-03-22T23:13:49.494Z,89.80
2018-03-22T23:16:16.955Z,89.70
2018-03-22T23:18:45.186Z,90.20
2018-03-22T23:21:12.638Z,89.60
2018-03-22T23:23:40.102Z,89.80
2018-03-22T23:26:07.560Z,89.50
2018-03-22T23:28:35.031Z,89.20
2018-03-22T23:31:02.507Z,88.60
2018-03-22T23:33:30.224Z,88.50
2018-03-22T23:35:57.714Z,88.60
2018-03-22T23:38:25.178Z,88.70
2018-03-22T23:40:52.652Z,89.00
2018-03-22T23:43:20.354Z,88.80
2018-03-22T23:45:48.117Z,89.60
2018-03-22T23:48:15.823Z,88.90
2018-03-22T23:50:43.285Z,89.30
2018-03-22T23:53:10.751Z,89.60
2018-03-22T23:55:38.208Z,89.80
2018-03-22T23:58:05.683Z,89.80
